Airfield :
LOGIN :

Register | Disclaimer

   EN    FR    IT 

 










Legend :    VFR   Marginal VFR   IFR   Intensive IFR   Very Intensive IFR
Visi :
Ceiling :
>= 8 km
>= 3000ft
5 to 8 km
1000 to 3000 ft
1500m to 5 km
500 to 1000 ft
800 to 1500m
200 to 500 ft
< 800m
< 200 ft
Symbols :   Thunderstorms  Fog  Heavy snow  Heavy precipitations  Wind > 20 kt
SIGMETs :     Misc.  Thunderstorms  Icing  Turbulence  Mountain Waves  Volcanic Ashes






- Airport Elevation : 228 ft
- IATA code : OPO


LPPR - Porto Fr. Sa Carneiro

CURRENT METAR :
  • 031400Z 32012KT CAVOK 20/15 Q1019

EXPIRED METARs :
  • 031330Z 33012KT 300V360 CAVOK 19/14 Q1019
  • 031300Z 33013KT CAVOK 19/13 Q1019
  • 031230Z 32010KT CAVOK 19/14 Q1019
  • 031200Z 32011KT CAVOK 20/14 Q1019
  • 031130Z 33012KT CAVOK 20/14 Q1019

TAF TAF LPPR
Valid from the 03 at 12:00 until the 04 at 12:00 UTC


031100Z 0312/0412 32013KT CAVOK
BECMG 0315/0317 9999 SCT040
BECMG 0319/0322 22007KT 5000 -RADZ BR SCT004 BKN008
TEMPO 0322/0410 2000 RADZ BR SCT002 BKN004
PROB30
TEMPO 0403/0409 0400 FG BKN000
BECMG 0410/0412 30007KT



MET'MAP, your aeronautical weather chart ! - Copyright ORBIFLY December 2007 - Disclaimer

ORBIFLY MET'MAP TEAM :

Programming & Development : Alexandra Zaïnal
Concept & original design : Baudouin d'Aumeries
Assistance for programming : Marc-Olivier Méhu
Technical & hardware support : Manuel Goepfert

Contact : metmap@orbifly.com




SOURCES & CREDITS :

   NOAA